createdAt,value
2023-03-02T00:00:17.845Z,2.48
2023-03-02T00:02:20.634Z,2.46
2023-03-02T00:04:25.969Z,2.45
2023-03-02T00:06:31.001Z,2.44
2023-03-02T00:08:34.425Z,2.42
2023-03-02T00:10:37.301Z,2.43
2023-03-02T00:12:38.967Z,2.43
2023-03-02T00:14:40.585Z,2.42
2023-03-02T00:16:42.720Z,2.42
2023-03-02T00:18:44.501Z,2.41
2023-03-02T00:20:46.109Z,2.40
2023-03-02T00:22:49.056Z,2.40
2023-03-02T00:24:50.865Z,2.39
2023-03-02T00:26:54.593Z,2.37
2023-03-02T00:28:56.479Z,2.36
2023-03-02T00:30:58.541Z,2.36
2023-03-02T00:33:00.168Z,2.35
2023-03-02T00:35:01.785Z,2.32
2023-03-02T00:37:03.422Z,2.31
2023-03-02T00:39:06.778Z,2.30
2023-03-02T00:41:08.376Z,2.29
2023-03-02T00:43:09.965Z,2.27
2023-03-02T00:45:12.119Z,2.27
2023-03-02T00:47:13.981Z,2.27
2023-03-02T00:49:15.556Z,2.26
2023-03-02T00:51:18.604Z,2.25
2023-03-02T00:53:20.225Z,2.25
2023-03-02T00:55:23.150Z,2.26
2023-03-02T00:57:25.432Z,2.26
2023-03-02T00:59:27.267Z,2.26
2023-03-02T01:01:28.874Z,2.28
2023-03-02T01:03:30.546Z,2.28
2023-03-02T01:05:36.525Z,2.29
2023-03-02T01:07:38.118Z,2.30
2023-03-02T01:09:41.455Z,2.30
2023-03-02T01:11:44.586Z,2.31
2023-03-02T01:13:46.712Z,2.32
2023-03-02T01:15:48.740Z,2.32
2023-03-02T01:17:50.824Z,2.33
2023-03-02T01:19:53.246Z,2.34
2023-03-02T01:21:54.842Z,2.35
2023-03-02T01:23:56.679Z,2.35
2023-03-02T01:25:58.689Z,2.35
2023-03-02T01:28:01.886Z,2.34
2023-03-02T01:30:04.238Z,2.35
2023-03-02T01:32:06.355Z,2.33
2023-03-02T01:34:08.984Z,2.36
2023-03-02T01:36:10.547Z,2.35
2023-03-02T01:38:12.585Z,2.36
2023-03-02T01:40:14.557Z,2.36
2023-03-02T01:42:16.436Z,2.37
2023-03-02T01:44:41.288Z,2.38
2023-03-02T01:46:42.919Z,2.37
2023-03-02T01:48:48.685Z,2.36
2023-03-02T01:50:50.754Z,2.35
2023-03-02T01:52:55.324Z,2.36
2023-03-02T01:55:00.356Z,2.36
2023-03-02T01:57:04.590Z,2.36
2023-03-02T01:59:12.245Z,2.36
2023-03-02T02:01:15.877Z,2.35
2023-03-02T02:03:23.330Z,2.35
2023-03-02T02:05:25.513Z,2.33
2023-03-02T02:07:27.384Z,2.32
2023-03-02T02:09:33.400Z,2.31
2023-03-02T02:11:35.098Z,2.31
2023-03-02T02:13:36.931Z,2.31
2023-03-02T02:15:41.093Z,2.31
2023-03-02T02:17:44.611Z,2.30
2023-03-02T02:20:12.920Z,2.33
2023-03-02T02:22:18.045Z,2.29
2023-03-02T02:24:25.613Z,2.29
2023-03-02T02:26:32.864Z,2.29
2023-03-02T02:28:40.517Z,2.27
2023-03-02T02:30:43.699Z,2.26
2023-03-02T02:32:48.537Z,2.25
2023-03-02T02:34:56.925Z,2.26
2023-03-02T02:37:03.807Z,2.24
2023-03-02T02:39:08.753Z,2.24
2023-03-02T02:41:18.972Z,2.25
2023-03-02T02:43:23.353Z,2.26
2023-03-02T02:45:27.237Z,2.24
2023-03-02T02:47:29.497Z,2.25
2023-03-02T02:49:35.306Z,2.25
2023-03-02T02:51:37.208Z,2.25
2023-03-02T02:53:43.995Z,2.25
2023-03-02T02:55:48.649Z,2.25
2023-03-02T02:57:52.193Z,2.24
2023-03-02T02:59:58.825Z,2.24
2023-03-02T03:02:00.774Z,2.23
2023-03-02T03:04:05.045Z,2.25
2023-03-02T03:06:09.709Z,2.24
2023-03-02T03:08:49.618Z,2.26
2023-03-02T03:10:51.612Z,2.24
2023-03-02T03:12:53.395Z,2.24
2023-03-02T03:14:57.335Z,2.23
2023-03-02T03:16:59.244Z,2.23
2023-03-02T03:19:07.016Z,2.23
2023-03-02T03:21:08.732Z,2.23
2023-03-02T03:23:10.341Z,2.24
2023-03-02T03:25:12.336Z,2.23
2023-03-02T03:27:16.289Z,2.24
2023-03-02T03:29:18.848Z,2.24
2023-03-02T03:31:21.892Z,2.25
2023-03-02T03:33:24.058Z,2.26
2023-03-02T03:35:25.906Z,2.29
2023-03-02T03:37:27.420Z,2.31
2023-03-02T03:39:29.767Z,2.34
2023-03-02T03:41:31.570Z,2.37
2023-03-02T03:43:33.568Z,2.39
2023-03-02T03:45:35.705Z,2.41
2023-03-02T03:47:39.243Z,2.43
2023-03-02T03:49:40.895Z,2.44
2023-03-02T03:51:42.472Z,2.45
2023-03-02T03:53:44.258Z,2.46
2023-03-02T03:55:45.909Z,2.49
2023-03-02T03:57:47.550Z,2.50
2023-03-02T03:59:49.322Z,2.52
2023-03-02T04:01:52.927Z,2.53
2023-03-02T04:03:56.211Z,2.56
2023-03-02T04:05:58.091Z,2.57
2023-03-02T04:07:59.803Z,2.57
2023-03-02T04:10:02.556Z,2.59
2023-03-02T04:12:05.516Z,2.60
2023-03-02T04:14:08.305Z,2.61
2023-03-02T04:16:10.385Z,2.62
2023-03-02T04:18:12.223Z,2.63
2023-03-02T04:20:19.111Z,2.64
2023-03-02T04:22:21.400Z,2.65
2023-03-02T04:24:24.227Z,2.65
2023-03-02T04:26:25.864Z,2.66
2023-03-02T04:28:27.624Z,2.66
2023-03-02T04:30:29.706Z,2.67
2023-03-02T04:32:32.035Z,2.68
2023-03-02T04:34:34.431Z,2.69
2023-03-02T04:36:39.579Z,2.70
2023-03-02T04:38:41.474Z,2.69
2023-03-02T04:40:43.288Z,2.68
2023-03-02T04:42:45.161Z,2.68
2023-03-02T04:44:46.777Z,2.68
2023-03-02T04:46:50.012Z,2.68
2023-03-02T04:48:51.968Z,2.70
2023-03-02T04:50:53.809Z,2.71
2023-03-02T04:52:56.872Z,2.73
2023-03-02T04:54:58.533Z,2.74
2023-03-02T04:57:00.231Z,2.75
2023-03-02T04:59:01.888Z,2.75
2023-03-02T05:01:03.681Z,2.77
2023-03-02T05:03:06.833Z,2.77
2023-03-02T05:05:15.604Z,2.77
2023-03-02T05:07:17.343Z,2.79
2023-03-02T05:09:21.247Z,2.80
2023-03-02T05:11:23.020Z,2.80
2023-03-02T05:13:24.748Z,2.82
2023-03-02T05:15:29.383Z,2.83
2023-03-02T05:17:30.962Z,2.82
2023-03-02T05:19:32.561Z,2.82
2023-03-02T05:21:34.643Z,2.83
2023-03-02T05:23:36.366Z,2.84
2023-03-02T05:25:39.816Z,2.83
2023-03-02T05:27:41.461Z,2.83
2023-03-02T05:29:43.422Z,2.83
2023-03-02T05:31:46.310Z,2.82
2023-03-02T05:33:48.235Z,2.82
2023-03-02T05:35:50.340Z,2.80
2023-03-02T05:37:52.040Z,2.80
2023-03-02T05:39:54.953Z,2.79
2023-03-02T05:41:58.259Z,2.79
2023-03-02T05:44:00.244Z,2.79
2023-03-02T05:46:02.248Z,2.79
2023-03-02T05:48:05.024Z,2.77
2023-03-02T05:50:07.787Z,2.79
2023-03-02T05:52:10.392Z,2.79
2023-03-02T05:54:11.904Z,2.81
2023-03-02T05:56:13.864Z,2.81
2023-03-02T05:58:19.917Z,2.81
2023-03-02T06:00:22.285Z,2.82
2023-03-02T06:02:24.013Z,2.82
2023-03-02T06:04:25.790Z,2.84
2023-03-02T06:06:27.437Z,2.84
2023-03-02T06:08:29.011Z,2.85
2023-03-02T06:10:30.775Z,2.85
2023-03-02T06:12:33.109Z,2.85
2023-03-02T06:14:36.710Z,2.86
2023-03-02T06:16:40.593Z,2.86
2023-03-02T06:18:42.304Z,2.86
2023-03-02T06:20:43.887Z,2.85
2023-03-02T06:22:47.108Z,2.83
2023-03-02T06:24:49.069Z,2.84
2023-03-02T06:26:53.087Z,2.82
2023-03-02T06:28:54.798Z,2.82
2023-03-02T06:30:59.477Z,2.83
2023-03-02T06:33:01.312Z,2.83
2023-03-02T06:35:04.358Z,2.82
2023-03-02T06:37:06.048Z,2.84
2023-03-02T06:39:10.103Z,2.85
2023-03-02T06:41:11.906Z,2.86
2023-03-02T06:43:13.827Z,2.83
2023-03-02T06:45:15.736Z,2.87
2023-03-02T06:47:18.885Z,2.86
2023-03-02T06:49:20.632Z,2.87
2023-03-02T06:51:22.519Z,2.88
2023-03-02T06:53:24.578Z,2.87
2023-03-02T06:55:26.544Z,2.87
2023-03-02T06:57:30.640Z,2.89
2023-03-02T06:59:32.648Z,2.89
2023-03-02T07:01:35.035Z,2.89
2023-03-02T07:03:38.597Z,2.89
2023-03-02T07:05:40.634Z,2.89
2023-03-02T07:07:42.592Z,2.87
2023-03-02T07:09:44.436Z,2.89
2023-03-02T07:11:46.247Z,2.88
2023-03-02T07:13:48.067Z,2.88
2023-03-02T07:15:49.994Z,2.89
2023-03-02T07:17:51.978Z,2.88
2023-03-02T07:19:55.504Z,2.89
2023-03-02T07:21:57.287Z,2.90
2023-03-02T07:23:59.169Z,2.91
2023-03-02T07:26:01.424Z,2.94
2023-03-02T07:28:04.314Z,2.96
2023-03-02T07:30:07.526Z,2.98
2023-03-02T07:32:12.087Z,3.01
2023-03-02T07:34:14.273Z,3.04
2023-03-02T07:36:17.673Z,3.02
2023-03-02T07:38:19.424Z,3.05
2023-03-02T07:40:21.016Z,3.08
2023-03-02T07:42:23.208Z,3.10
2023-03-02T07:44:24.833Z,3.12
2023-03-02T07:46:26.769Z,3.13
2023-03-02T07:48:28.394Z,3.16
2023-03-02T07:50:30.229Z,3.16
2023-03-02T07:52:33.438Z,3.18
2023-03-02T07:54:35.077Z,3.19
2023-03-02T07:56:37.114Z,3.21
2023-03-02T07:58:38.835Z,3.22
2023-03-02T08:00:42.641Z,3.25
2023-03-02T08:02:44.760Z,3.26
2023-03-02T08:04:47.952Z,3.27
2023-03-02T08:06:49.600Z,3.28
2023-03-02T08:08:53.563Z,3.30
2023-03-02T08:10:55.050Z,3.31
2023-03-02T08:12:56.942Z,3.33
2023-03-02T08:14:58.485Z,3.34
2023-03-02T08:17:00.155Z,3.33
2023-03-02T08:19:01.741Z,3.32
2023-03-02T08:21:03.989Z,3.31
2023-03-02T08:23:05.696Z,3.32
2023-03-02T08:25:10.199Z,3.31
2023-03-02T08:27:13.700Z,3.30
2023-03-02T08:29:15.507Z,3.29
2023-03-02T08:31:17.246Z,3.29
2023-03-02T08:33:19.168Z,3.31
2023-03-02T08:35:20.859Z,3.33
2023-03-02T08:37:22.589Z,3.35
2023-03-02T08:39:24.335Z,3.35
2023-03-02T08:41:27.585Z,3.39
2023-03-02T08:43:29.698Z,3.41
2023-03-02T08:45:31.450Z,3.44
2023-03-02T08:47:33.095Z,3.46
2023-03-02T08:49:35.059Z,3.49
2023-03-02T08:51:36.718Z,3.52
2023-03-02T08:53:40.992Z,3.53
2023-03-02T08:55:42.864Z,3.57
2023-03-02T08:57:45.979Z,3.60
2023-03-02T08:59:47.528Z,3.63
2023-03-02T09:01:49.370Z,3.67
2023-03-02T09:03:51.814Z,3.70
2023-03-02T09:05:53.624Z,3.73
2023-03-02T09:07:55.344Z,3.78
2023-03-02T09:09:57.072Z,3.80
2023-03-02T09:11:58.873Z,3.83
2023-03-02T09:14:02.420Z,3.85
2023-03-02T09:16:04.828Z,3.87
2023-03-02T09:18:06.649Z,3.90
2023-03-02T09:20:10.065Z,3.94
2023-03-02T09:22:11.800Z,3.97
2023-03-02T09:24:13.954Z,4.00
2023-03-02T09:26:15.951Z,4.02
2023-03-02T09:28:18.610Z,4.06
2023-03-02T09:30:21.903Z,4.08
2023-03-02T09:32:24.686Z,4.09
2023-03-02T09:34:26.452Z,4.13
2023-03-02T09:36:28.511Z,4.16
2023-03-02T09:38:30.161Z,4.19
2023-03-02T09:40:38.763Z,4.19
2023-03-02T09:43:00.689Z,4.23
2023-03-02T09:45:15.051Z,4.26
2023-03-02T09:47:35.520Z,4.31
2023-03-02T09:49:52.050Z,4.35
2023-03-02T09:52:08.910Z,4.40
2023-03-02T09:54:13.185Z,4.43
2023-03-02T09:56:17.970Z,4.47
2023-03-02T09:58:23.385Z,4.49
2023-03-02T10:00:29.054Z,4.53
2023-03-02T10:02:37.623Z,4.55
2023-03-02T10:04:44.765Z,4.56
2023-03-02T10:06:46.813Z,4.56
2023-03-02T10:08:48.579Z,4.60
2023-03-02T10:10:58.048Z,4.62
2023-03-02T10:13:11.000Z,4.66
2023-03-02T10:15:16.855Z,4.69
2023-03-02T10:17:40.002Z,4.71
2023-03-02T10:19:46.828Z,4.73
2023-03-02T10:21:54.204Z,4.75
2023-03-02T10:24:03.779Z,4.75
2023-03-02T10:26:18.037Z,4.77
2023-03-02T10:28:22.063Z,4.77
2023-03-02T10:30:28.710Z,4.79
2023-03-02T10:32:33.245Z,4.79
2023-03-02T10:34:38.464Z,4.80
2023-03-02T10:36:43.903Z,4.82
2023-03-02T10:38:45.681Z,4.83
2023-03-02T10:40:49.273Z,4.85
2023-03-02T10:42:51.994Z,4.88
2023-03-02T10:45:02.341Z,4.93
2023-03-02T10:47:05.062Z,4.96
2023-03-02T10:49:25.468Z,5.00
2023-03-02T10:51:30.509Z,5.04
2023-03-02T10:53:32.131Z,5.09
2023-03-02T10:55:34.669Z,5.15
2023-03-02T10:57:38.267Z,5.18
2023-03-02T10:59:44.722Z,5.21
2023-03-02T11:01:58.611Z,5.26
2023-03-02T11:04:02.123Z,5.28
2023-03-02T11:06:17.606Z,5.34
2023-03-02T11:08:23.383Z,5.41
2023-03-02T11:10:27.768Z,5.48
2023-03-02T11:12:31.602Z,5.57
2023-03-02T11:14:33.247Z,5.68
2023-03-02T11:16:35.034Z,5.76
2023-03-02T11:18:40.091Z,5.84
2023-03-02T11:20:45.496Z,5.93
2023-03-02T11:22:57.200Z,6.00
2023-03-02T11:25:05.777Z,6.07
2023-03-02T11:27:15.150Z,6.13
2023-03-02T11:29:34.549Z,6.21
2023-03-02T11:31:43.470Z,6.27
2023-03-02T11:34:01.869Z,6.33
2023-03-02T11:36:09.256Z,6.37
2023-03-02T11:38:17.518Z,6.41
2023-03-02T11:40:24.954Z,6.42
2023-03-02T11:42:31.172Z,6.46
2023-03-02T11:44:32.821Z,6.52
2023-03-02T11:46:35.823Z,6.61
2023-03-02T11:48:42.874Z,6.69
2023-03-02T11:50:56.125Z,6.80
2023-03-02T11:53:01.068Z,6.91
2023-03-02T11:55:06.615Z,6.97
2023-03-02T11:57:20.685Z,7.07
2023-03-02T11:59:25.758Z,7.11
2023-03-02T12:01:30.928Z,7.14
2023-03-02T12:23:25.103Z,7.51
2023-03-02T12:25:38.949Z,7.98
2023-03-02T12:27:40.738Z,8.23
2023-03-02T12:29:44.757Z,8.44
2023-03-02T12:31:49.274Z,8.62
2023-03-02T12:33:52.621Z,8.76
2023-03-02T12:36:04.583Z,8.92
2023-03-02T12:38:26.941Z,9.03
2023-03-02T12:40:39.506Z,9.15
2023-03-02T12:42:50.606Z,9.25
2023-03-02T12:45:01.383Z,9.34
2023-03-02T12:47:07.765Z,9.43
2023-03-02T12:49:34.626Z,9.57
2023-03-02T12:51:48.102Z,9.68
2023-03-02T12:54:02.739Z,9.79
2023-03-02T12:56:04.773Z,9.87
2023-03-02T12:58:17.560Z,10.02
2023-03-02T13:00:21.945Z,10.13
2023-03-02T13:02:26.320Z,10.26
2023-03-02T13:04:27.948Z,10.36
2023-03-02T13:06:31.959Z,10.45
2023-03-02T13:08:34.352Z,10.54
2023-03-02T13:10:40.322Z,10.63
2023-03-02T13:12:45.281Z,10.71
2023-03-02T13:14:52.363Z,10.78
2023-03-02T13:16:57.034Z,10.86
2023-03-02T13:19:01.286Z,10.93
2023-03-02T13:21:05.422Z,11.00
2023-03-02T13:23:07.239Z,11.05
2023-03-02T13:25:22.575Z,11.14
2023-03-02T13:27:25.930Z,11.17
2023-03-02T13:29:29.047Z,11.22
2023-03-02T13:31:31.133Z,11.25
2023-03-02T13:33:35.277Z,11.27
2023-03-02T13:35:36.974Z,11.29
2023-03-02T13:37:40.348Z,11.27
2023-03-02T13:39:42.188Z,11.25
2023-03-02T13:41:53.164Z,11.25
2023-03-02T13:43:57.467Z,11.21
2023-03-02T13:46:01.021Z,11.15
2023-03-02T13:48:14.049Z,11.08
2023-03-02T13:50:20.978Z,10.97
2023-03-02T13:52:27.793Z,10.92
2023-03-02T13:54:32.015Z,10.84
2023-03-02T13:56:36.608Z,10.80
2023-03-02T13:58:40.233Z,10.75
2023-03-02T14:00:43.513Z,10.69
2023-03-02T14:02:45.604Z,10.64
2023-03-02T14:04:47.380Z,10.59
2023-03-02T14:06:49.111Z,10.55
2023-03-02T14:08:50.847Z,10.50
2023-03-02T14:10:55.095Z,10.48
2023-03-02T14:13:01.379Z,10.44
2023-03-02T14:15:04.863Z,10.39
2023-03-02T14:17:14.351Z,10.36
2023-03-02T14:19:16.067Z,10.32
2023-03-02T14:21:20.085Z,10.30
2023-03-02T14:23:22.049Z,10.28
2023-03-02T14:25:23.599Z,10.27
2023-03-02T14:27:29.252Z,10.29
2023-03-02T14:29:33.173Z,10.28
2023-03-02T14:31:35.515Z,10.28
2023-03-02T14:33:38.766Z,10.31
2023-03-02T14:35:40.604Z,10.33
2023-03-02T14:37:45.901Z,10.34
2023-03-02T14:39:49.872Z,10.35
2023-03-02T14:48:24.915Z,10.25
2023-03-02T14:50:26.718Z,10.52
2023-03-02T15:04:44.373Z,10.40
2023-03-02T15:06:46.370Z,10.64
2023-03-02T15:08:48.008Z,10.72
2023-03-02T15:10:50.636Z,10.75
2023-03-02T15:12:52.688Z,10.75
2023-03-02T15:14:54.228Z,10.73
2023-03-02T15:16:55.745Z,10.74
2023-03-02T15:18:58.913Z,10.73
2023-03-02T15:21:02.332Z,10.69
2023-03-02T15:23:04.154Z,10.67
2023-03-02T15:25:06.449Z,10.62
2023-03-02T15:27:08.313Z,10.60
2023-03-02T15:29:10.368Z,10.53
2023-03-02T15:31:13.740Z,10.51
2023-03-02T15:33:15.305Z,10.51
2023-03-02T15:35:17.473Z,10.45
2023-03-02T15:37:20.594Z,10.41
2023-03-02T15:39:22.582Z,10.40
2023-03-02T15:41:24.138Z,10.35
2023-03-02T15:43:25.948Z,10.33
2023-03-02T15:45:27.790Z,10.28
2023-03-02T15:47:29.448Z,10.22
2023-03-02T15:49:31.146Z,10.17
2023-03-02T15:51:32.818Z,10.11
2023-03-02T15:53:38.456Z,10.03
2023-03-02T15:55:40.701Z,9.97
2023-03-02T15:57:42.471Z,9.91
2023-03-02T16:06:35.390Z,9.66
2023-03-02T16:08:38.863Z,9.59
2023-03-02T16:10:41.056Z,9.54
2023-03-02T16:12:42.887Z,9.47
2023-03-02T16:14:44.388Z,9.41
2023-03-02T16:16:46.583Z,9.35
2023-03-02T16:18:51.413Z,9.28
2023-03-02T16:20:53.197Z,9.20
2023-03-02T16:22:54.950Z,9.12
2023-03-02T16:24:58.308Z,9.04
2023-03-02T16:26:59.803Z,8.97
2023-03-02T16:29:01.798Z,8.89
2023-03-02T16:31:04.995Z,8.78
2023-03-02T16:33:08.849Z,8.70
2023-03-02T16:35:10.670Z,8.62
2023-03-02T16:37:12.213Z,8.51
2023-03-02T16:39:13.976Z,8.42
2023-03-02T16:41:19.311Z,8.32
2023-03-02T16:43:20.947Z,8.22
2023-03-02T16:45:22.620Z,8.13
2023-03-02T16:47:24.087Z,8.06
2023-03-02T16:49:25.699Z,7.97
2023-03-02T16:51:27.439Z,7.89
2023-03-02T16:53:29.280Z,7.80
2023-03-02T16:55:30.854Z,7.72
2023-03-02T16:57:33.879Z,7.63
2023-03-02T16:59:35.352Z,7.56
2023-03-02T17:01:38.716Z,7.47
2023-03-02T17:03:40.675Z,7.41
2023-03-02T17:05:42.290Z,7.35
2023-03-02T17:07:44.284Z,7.31
2023-03-02T17:09:45.971Z,7.26
2023-03-02T17:11:47.523Z,7.19
2023-03-02T17:13:50.401Z,7.14
2023-03-02T17:15:52.466Z,7.07
2023-03-02T17:17:54.148Z,7.04
2023-03-02T17:19:55.642Z,6.99
2023-03-02T17:21:58.424Z,6.97
2023-03-02T17:24:00.266Z,6.93
2023-03-02T17:26:02.121Z,6.89
2023-03-02T17:28:03.854Z,6.87
2023-03-02T17:30:09.271Z,6.82
2023-03-02T17:32:10.995Z,6.79
2023-03-02T17:34:12.954Z,6.77
2023-03-02T17:36:14.974Z,6.73
2023-03-02T17:38:16.892Z,6.68
2023-03-02T17:40:19.074Z,6.62
2023-03-02T17:42:20.670Z,6.54
2023-03-02T17:44:22.308Z,6.49
2023-03-02T17:46:29.083Z,6.44
2023-03-02T17:48:30.928Z,6.35
2023-03-02T17:50:32.615Z,6.31
2023-03-02T17:52:34.288Z,6.25
2023-03-02T17:54:35.939Z,6.19
2023-03-02T17:56:37.600Z,6.14
2023-03-02T17:58:45.163Z,6.10
2023-03-02T18:00:47.057Z,6.04
2023-03-02T18:02:51.085Z,6.01
2023-03-02T18:04:52.942Z,5.96
2023-03-02T18:06:54.582Z,5.91
2023-03-02T18:08:56.204Z,5.88
2023-03-02T18:10:57.866Z,5.84
2023-03-02T18:12:59.646Z,5.82
2023-03-02T18:15:01.416Z,5.80
2023-03-02T18:17:03.460Z,5.76
2023-03-02T18:19:06.831Z,5.74
2023-03-02T18:21:08.368Z,5.69
2023-03-02T18:23:10.645Z,5.67
2023-03-02T18:25:12.663Z,5.63
2023-03-02T18:27:14.505Z,5.60
2023-03-02T18:29:16.166Z,5.56
2023-03-02T18:31:18.788Z,5.53
2023-03-02T18:33:23.042Z,5.51
2023-03-02T18:35:26.251Z,5.47
2023-03-02T18:37:28.191Z,5.45
2023-03-02T18:39:30.065Z,5.40
2023-03-02T18:41:32.222Z,5.38
2023-03-02T18:43:37.533Z,5.37
2023-03-02T18:45:39.127Z,5.34
2023-03-02T18:47:40.615Z,5.33
2023-03-02T18:49:42.810Z,5.29
2023-03-02T18:51:46.015Z,5.28
2023-03-02T18:53:48.648Z,5.26
2023-03-02T18:55:50.970Z,5.24
2023-03-02T18:57:52.760Z,5.20
2023-03-02T18:59:54.707Z,5.17
2023-03-02T19:01:56.529Z,5.13
2023-03-02T19:03:58.151Z,5.10
2023-03-02T19:05:59.828Z,5.05
2023-03-02T19:08:02.748Z,5.01
2023-03-02T19:10:05.891Z,4.96
2023-03-02T19:12:07.709Z,4.93
2023-03-02T19:14:09.663Z,4.89
2023-03-02T19:16:11.422Z,4.85
2023-03-02T19:18:15.556Z,4.82
2023-03-02T19:20:19.238Z,4.81
2023-03-02T19:22:20.743Z,4.77
2023-03-02T19:24:23.660Z,4.76
2023-03-02T19:26:25.387Z,4.73
2023-03-02T19:28:27.392Z,4.71
2023-03-02T19:30:29.529Z,4.68
2023-03-02T19:32:31.181Z,4.66
2023-03-02T19:34:32.749Z,4.64
2023-03-02T19:36:34.331Z,4.62
2023-03-02T19:38:35.932Z,4.60
2023-03-02T19:40:38.918Z,4.61
2023-03-02T19:42:40.484Z,4.60
2023-03-02T19:44:42.126Z,4.58
2023-03-02T19:46:43.797Z,4.57
2023-03-02T19:48:45.410Z,4.56
2023-03-02T19:50:47.475Z,4.54
2023-03-02T19:52:49.425Z,4.53
2023-03-02T19:54:51.239Z,4.50
2023-03-02T19:56:54.619Z,4.50
2023-03-02T19:58:56.556Z,4.47
2023-03-02T20:00:58.644Z,4.45
2023-03-02T20:03:00.808Z,4.44
2023-03-02T20:05:03.124Z,4.41
2023-03-02T20:07:05.033Z,4.41
2023-03-02T20:09:07.657Z,4.39
2023-03-02T20:11:10.026Z,4.37
2023-03-02T20:13:13.368Z,4.35
2023-03-02T20:15:15.137Z,4.34
2023-03-02T20:17:17.154Z,4.33
2023-03-02T20:19:19.094Z,4.31
2023-03-02T20:21:21.110Z,4.29
2023-03-02T20:23:22.768Z,4.27
2023-03-02T20:25:24.448Z,4.28
2023-03-02T20:27:26.281Z,4.26
2023-03-02T20:29:29.427Z,4.25
2023-03-02T20:31:33.403Z,4.24
2023-03-02T20:33:38.077Z,4.24
2023-03-02T20:35:42.016Z,4.24
2023-03-02T20:37:44.936Z,4.24
2023-03-02T20:39:46.750Z,4.24
2023-03-02T20:41:48.611Z,4.24
2023-03-02T20:43:50.432Z,4.23
2023-03-02T20:45:54.298Z,4.23
2023-03-02T20:47:56.404Z,4.22
2023-03-02T20:49:58.693Z,4.21
2023-03-02T20:52:00.977Z,4.21
2023-03-02T20:54:04.187Z,4.21
2023-03-02T20:56:06.385Z,4.21
2023-03-02T20:58:09.170Z,4.20
2023-03-02T21:00:17.142Z,4.21
2023-03-02T21:02:20.662Z,4.17
2023-03-02T21:04:22.269Z,4.17
2023-03-02T21:06:23.897Z,4.16
2023-03-02T21:08:25.930Z,4.15
2023-03-02T21:10:30.146Z,4.13
2023-03-02T21:12:32.406Z,4.11
2023-03-02T21:14:35.104Z,4.08
2023-03-02T21:16:39.422Z,4.05
2023-03-02T21:18:42.542Z,4.02
2023-03-02T21:20:44.526Z,4.00
2023-03-02T21:22:46.545Z,3.98
2023-03-02T21:24:48.203Z,3.97
2023-03-02T21:26:52.084Z,3.96
2023-03-02T21:28:53.935Z,3.94
2023-03-02T21:30:55.785Z,3.92
2023-03-02T21:32:57.642Z,3.91
2023-03-02T21:35:00.952Z,3.89
2023-03-02T21:37:02.823Z,3.87
2023-03-02T21:39:05.888Z,3.85
2023-03-02T21:41:07.538Z,3.81
2023-03-02T21:43:09.880Z,3.79
2023-03-02T21:45:12.978Z,3.75
2023-03-02T21:47:15.343Z,3.71
2023-03-02T21:49:18.946Z,3.68
2023-03-02T21:54:26.291Z,3.60
2023-03-02T21:56:27.902Z,3.55
2023-03-02T21:58:29.726Z,3.52
2023-03-02T22:00:33.481Z,3.50
2023-03-02T22:02:35.063Z,3.49
2023-03-02T22:04:36.713Z,3.47
2023-03-02T22:06:38.316Z,3.44
2023-03-02T22:08:40.015Z,3.42
2023-03-02T22:10:45.008Z,3.38
2023-03-02T22:12:47.153Z,3.35
2023-03-02T22:14:48.927Z,3.31
2023-03-02T22:16:50.760Z,3.29
2023-03-02T22:18:55.658Z,3.26
2023-03-02T22:20:57.514Z,3.23
2023-03-02T22:22:59.414Z,3.22
2023-03-02T22:25:00.964Z,3.19
2023-03-02T22:27:22.218Z,3.17
2023-03-02T22:29:27.810Z,3.13
2023-03-02T22:31:29.565Z,3.10
2023-03-02T22:33:33.968Z,3.07
2023-03-02T22:35:35.617Z,3.04
2023-03-02T22:37:37.260Z,3.02
2023-03-02T22:39:41.955Z,3.02
2023-03-02T22:41:44.428Z,2.99
2023-03-02T22:43:47.518Z,2.97
2023-03-02T22:45:49.218Z,2.98
2023-03-02T22:47:54.006Z,2.97
2023-03-02T22:50:00.312Z,2.97
2023-03-02T22:52:11.620Z,2.96
2023-03-02T22:54:23.001Z,2.94
2023-03-02T22:56:29.315Z,2.90
2023-03-02T22:58:45.056Z,2.91
2023-03-02T23:00:48.454Z,2.86
2023-03-02T23:02:52.288Z,2.85
2023-03-02T23:04:53.847Z,2.83
2023-03-02T23:06:57.297Z,2.81
2023-03-02T23:09:00.490Z,2.78
2023-03-02T23:11:02.275Z,2.77
2023-03-02T23:13:04.068Z,2.75
2023-03-02T23:15:17.038Z,2.75
2023-03-02T23:17:22.294Z,2.72
2023-03-02T23:19:25.685Z,2.71
2023-03-02T23:21:33.082Z,2.67
2023-03-02T23:23:35.199Z,2.67
2023-03-02T23:25:37.131Z,2.63
2023-03-02T23:27:39.069Z,2.61
2023-03-02T23:29:40.892Z,2.59
2023-03-02T23:31:42.567Z,2.57
2023-03-02T23:33:46.274Z,2.55
2023-03-02T23:35:47.918Z,2.54
2023-03-02T23:37:50.027Z,2.51
2023-03-02T23:39:51.770Z,2.49
2023-03-02T23:41:54.025Z,2.47
2023-03-02T23:43:56.275Z,2.43
2023-03-02T23:45:57.868Z,2.40
2023-03-02T23:47:59.512Z,2.39
2023-03-02T23:50:02.547Z,2.35
2023-03-02T23:52:04.185Z,2.32
2023-03-02T23:54:06.078Z,2.30
2023-03-02T23:56:08.408Z,2.27
2023-03-02T23:58:10.143Z,2.25
